Time;durP1;ratioP1;P1;durP2;ratioP2;P2;SDS_P1;SDS_P2;PMS_P1;PMS_P2;Temp;Humidity;BMP_temperature;BMP_pressure;BME280_temperature;BME280_humidity;BME280_pressure;Samples;Min_cycle;Max_cycle;Signal;HPM_P1;HPM_P2
2021/10/06 00:01:15;;;;;;;8.80;1.60;;;;;;;;;;5079925;28;20220;-76
2021/10/06 00:03:42;;;;;;;9.63;1.73;;;;;;;;;;5085741;28;20221;-76
2021/10/06 00:06:10;;;;;;;10.23;1.70;;;;;;;;;;5075869;28;20281;-76
2021/10/06 00:08:37;;;;;;;6.27;1.20;;;;;;;;;;5073608;28;20290;-76
2021/10/06 00:11:04;;;;;;;6.13;1.67;;;;;;;;;;5091409;28;20200;-76
2021/10/06 00:13:32;;;;;;;8.27;1.50;;;;;;;;;;5086463;28;20677;-76
2021/10/06 00:15:59;;;;;;;11.20;1.23;;;;;;;;;;5075554;28;20235;-76
2021/10/06 00:18:28;;;;;;;7.63;1.40;;;;;;;;;;5077426;28;20317;-76
2021/10/06 00:20:55;;;;;;;8.47;1.60;;;;;;;;;;5086789;28;20731;-76
2021/10/06 00:23:23;;;;;;;8.53;1.50;;;;;;;;;;5074501;28;20229;-76
2021/10/06 00:25:50;;;;;;;6.47;1.10;;;;;;;;;;5085631;28;20281;-76
2021/10/06 00:28:17;;;;;;;8.13;1.63;;;;;;;;;;5074953;28;20225;-76
2021/10/06 00:30:44;;;;;;;8.13;1.70;;;;;;;;;;5077515;28;20293;-76
2021/10/06 00:33:11;;;;;;;6.40;1.27;;;;;;;;;;5081628;28;20285;-76
2021/10/06 00:35:40;;;;;;;8.73;1.73;;;;;;;;;;5072469;28;20202;-76
2021/10/06 00:38:07;;;;;;;9.47;1.80;;;;;;;;;;5083883;28;20309;-76
2021/10/06 00:40:34;;;;;;;8.40;1.67;;;;;;;;;;5077678;28;20233;-77
2021/10/06 00:43:01;;;;;;;11.93;1.93;;;;;;;;;;5074103;28;20227;-76
2021/10/06 00:45:29;;;;;;;9.10;2.00;;;;;;;;;;5076596;28;20293;-76
2021/10/06 00:47:56;;;;;;;9.77;1.70;;;;;;;;;;5085708;28;20196;-76
2021/10/06 00:50:23;;;;;;;8.00;2.53;;;;;;;;;;5079984;28;20210;-76
2021/10/06 00:52:52;;;;;;;6.97;1.53;;;;;;;;;;5080580;28;20266;-76
2021/10/06 00:55:19;;;;;;;7.83;1.80;;;;;;;;;;5071222;28;20290;-76
2021/10/06 00:57:46;;;;;;;7.57;1.70;;;;;;;;;;5073607;28;20221;-76
2021/10/06 01:00:14;;;;;;;12.70;1.90;;;;;;;;;;5086247;28;20290;-76
2021/10/06 01:02:42;;;;;;;13.30;1.80;;;;;;;;;;5082151;28;20251;-76
2021/10/06 01:05:10;;;;;;;7.60;1.63;;;;;;;;;;5075258;28;20281;-76
2021/10/06 01:07:37;;;;;;;11.43;1.63;;;;;;;;;;5079716;28;20277;-76
2021/10/06 01:10:08;;;;;;;7.43;1.50;;;;;;;;;;5075610;28;20290;-77
2021/10/06 01:12:36;;;;;;;9.93;1.80;;;;;;;;;;5075005;28;20292;-77
2021/10/06 01:15:04;;;;;;;9.03;1.40;;;;;;;;;;5083531;28;20623;-75
2021/10/06 01:17:31;;;;;;;9.27;1.77;;;;;;;;;;5086532;28;20676;-75
2021/10/06 01:19:58;;;;;;;11.40;1.50;;;;;;;;;;5082608;28;20567;-75
2021/10/06 01:22:27;;;;;;;10.03;1.53;;;;;;;;;;5082131;28;20565;-75
2021/10/06 01:24:54;;;;;;;7.57;1.50;;;;;;;;;;5083170;28;20612;-75
2021/10/06 01:27:22;;;;;;;9.07;1.60;;;;;;;;;;5083031;28;20288;-75
2021/10/06 01:29:49;;;;;;;11.53;1.93;;;;;;;;;;5092359;28;20230;-75
2021/10/06 01:32:17;;;;;;;10.27;1.83;;;;;;;;;;5080106;28;20282;-75
2021/10/06 01:34:44;;;;;;;8.13;1.57;;;;;;;;;;5090401;28;20281;-77
2021/10/06 01:37:12;;;;;;;8.93;1.67;;;;;;;;;;5089981;28;20203;-76
2021/10/06 01:39:40;;;;;;;7.90;1.57;;;;;;;;;;5075536;28;20310;-75
2021/10/06 01:42:08;;;;;;;6.27;1.40;;;;;;;;;;5082867;28;20242;-76
2021/10/06 01:44:35;;;;;;;11.03;1.90;;;;;;;;;;5078100;28;20191;-76
2021/10/06 01:47:03;;;;;;;11.37;1.47;;;;;;;;;;5084431;28;20278;-76
2021/10/06 01:49:30;;;;;;;10.97;1.97;;;;;;;;;;5084057;28;20226;-76
2021/10/06 01:51:57;;;;;;;7.17;1.13;;;;;;;;;;5083538;28;20198;-75
2021/10/06 01:54:24;;;;;;;6.50;1.40;;;;;;;;;;5092241;28;20209;-76
2021/10/06 01:56:53;;;;;;;7.70;1.47;;;;;;;;;;5091071;28;20239;-76
2021/10/06 01:59:21;;;;;;;10.63;1.70;;;;;;;;;;5082506;28;20305;-76
2021/10/06 02:01:48;;;;;;;10.40;1.70;;;;;;;;;;5088511;28;20713;-76
2021/10/06 02:04:15;;;;;;;8.67;1.80;;;;;;;;;;5082760;28;20289;-76
2021/10/06 02:06:42;;;;;;;10.97;1.37;;;;;;;;;;5087831;28;20249;-76
2021/10/06 02:09:10;;;;;;;10.73;1.70;;;;;;;;;;5080798;28;20734;-76
2021/10/06 02:11:38;;;;;;;10.77;1.80;;;;;;;;;;5085539;28;20285;-76
2021/10/06 02:14:06;;;;;;;9.10;1.50;;;;;;;;;;5085037;28;20247;-76
2021/10/06 02:16:34;;;;;;;8.47;1.60;;;;;;;;;;5085375;28;20207;-75
2021/10/06 02:19:01;;;;;;;12.03;1.93;;;;;;;;;;5084312;28;20321;-75
2021/10/06 02:21:28;;;;;;;8.33;1.80;;;;;;;;;;5094112;28;20218;-75
2021/10/06 02:23:55;;;;;;;6.27;1.40;;;;;;;;;;5073723;28;20233;-75
2021/10/06 02:26:23;;;;;;;12.13;1.70;;;;;;;;;;5073240;28;20335;-75
2021/10/06 02:28:50;;;;;;;8.57;1.93;;;;;;;;;;5073003;28;20283;-75
2021/10/06 02:31:19;;;;;;;11.87;1.80;;;;;;;;;;5072074;28;20716;-77
2021/10/06 02:33:46;;;;;;;8.80;1.60;;;;;;;;;;5072837;28;20302;-75
2021/10/06 02:36:14;;;;;;;8.00;1.63;;;;;;;;;;5072541;28;20198;-76
2021/10/06 02:38:41;;;;;;;8.93;1.57;;;;;;;;;;5078613;28;20317;-75
2021/10/06 02:41:08;;;;;;;11.57;1.50;;;;;;;;;;5083830;28;20310;-75
2021/10/06 02:43:35;;;;;;;10.50;1.60;;;;;;;;;;5083016;28;20282;-76
2021/10/06 02:46:02;;;;;;;12.77;1.97;;;;;;;;;;5084289;28;20199;-75
2021/10/06 02:48:31;;;;;;;7.47;1.50;;;;;;;;;;5084778;28;20194;-76
2021/10/06 02:50:58;;;;;;;5.70;1.20;;;;;;;;;;5079014;28;20714;-75
2021/10/06 02:53:25;;;;;;;6.67;1.30;;;;;;;;;;5085154;28;20704;-76
2021/10/06 02:55:52;;;;;;;10.90;1.93;;;;;;;;;;5082347;28;20289;-77
2021/10/06 02:58:19;;;;;;;8.83;1.73;;;;;;;;;;5083789;28;20218;-75
2021/10/06 03:00:46;;;;;;;11.00;1.73;;;;;;;;;;5084422;28;20277;-76
2021/10/06 03:03:14;;;;;;;7.80;1.40;;;;;;;;;;5074976;28;20571;-75
2021/10/06 03:05:42;;;;;;;10.57;1.67;;;;;;;;;;5082127;28;20293;-76
2021/10/06 03:08:10;;;;;;;8.50;1.30;;;;;;;;;;5086234;28;20277;-76
2021/10/06 03:10:37;;;;;;;8.27;1.40;;;;;;;;;;5080960;28;20286;-76
2021/10/06 03:13:04;;;;;;;13.33;1.83;;;;;;;;;;5084645;28;20286;-76
2021/10/06 03:15:32;;;;;;;9.87;1.50;;;;;;;;;;5084362;28;20734;-75
2021/10/06 03:17:59;;;;;;;10.70;2.10;;;;;;;;;;5083515;28;20286;-75
2021/10/06 03:20:26;;;;;;;7.93;1.70;;;;;;;;;;5088179;28;20294;-76
2021/10/06 03:22:54;;;;;;;8.60;1.70;;;;;;;;;;5086961;28;20713;-75
2021/10/06 03:25:22;;;;;;;11.00;1.50;;;;;;;;;;5080982;28;20285;-76
2021/10/06 03:27:49;;;;;;;9.40;1.60;;;;;;;;;;5079900;28;20609;-76
2021/10/06 03:30:16;;;;;;;13.03;1.60;;;;;;;;;;5085103;28;20273;-77
2021/10/06 03:32:43;;;;;;;7.63;1.53;;;;;;;;;;5085176;28;20289;-75
2021/10/06 03:35:11;;;;;;;13.87;1.77;;;;;;;;;;5081152;28;20550;-75
2021/10/06 03:37:38;;;;;;;9.00;1.67;;;;;;;;;;5078913;28;20618;-75
2021/10/06 03:40:09;;;;;;;10.47;1.67;;;;;;;;;;5088778;28;20269;-77
2021/10/06 03:42:36;;;;;;;9.70;1.60;;;;;;;;;;5074550;28;20201;-75
2021/10/06 03:45:04;;;;;;;9.50;1.67;;;;;;;;;;5086677;28;20198;-75
2021/10/06 03:47:31;;;;;;;10.43;1.50;;;;;;;;;;5078938;28;20285;-75
2021/10/06 03:49:58;;;;;;;7.90;2.00;;;;;;;;;;5088823;28;20281;-75
2021/10/06 03:52:25;;;;;;;8.33;1.80;;;;;;;;;;5074390;28;20285;-75
2021/10/06 03:54:53;;;;;;;10.20;1.73;;;;;;;;;;5079999;28;20233;-75
2021/10/06 03:57:21;;;;;;;8.40;1.80;;;;;;;;;;5085077;28;20286;-75
2021/10/06 03:59:48;;;;;;;10.13;1.50;;;;;;;;;;5072277;28;20253;-75
2021/10/06 04:02:15;;;;;;;10.73;1.63;;;;;;;;;;5089239;28;20218;-75
2021/10/06 04:04:43;;;;;;;9.03;1.30;;;;;;;;;;5087092;28;20388;-75
2021/10/06 04:07:10;;;;;;;8.83;1.53;;;;;;;;;;5076999;28;20278;-76
2021/10/06 04:09:37;;;;;;;8.87;1.53;;;;;;;;;;5080179;28;20636;-75
2021/10/06 04:12:04;;;;;;;11.77;1.83;;;;;;;;;;5075053;28;20302;-75
2021/10/06 04:14:33;;;;;;;9.73;1.80;;;;;;;;;;5081442;28;20241;-75
2021/10/06 04:17:00;;;;;;;8.03;1.37;;;;;;;;;;5083555;28;20729;-75
2021/10/06 04:19:27;;;;;;;11.73;1.80;;;;;;;;;;5081529;28;20253;-75
2021/10/06 04:21:54;;;;;;;7.60;1.60;;;;;;;;;;5077630;28;20281;-75
2021/10/06 04:24:22;;;;;;;10.03;1.63;;;;;;;;;;5084758;28;20266;-77
2021/10/06 04:26:49;;;;;;;11.00;2.00;;;;;;;;;;5087987;28;20226;-76
2021/10/06 04:29:16;;;;;;;6.23;1.57;;;;;;;;;;5079787;28;20233;-77
2021/10/06 04:31:45;;;;;;;11.37;1.97;;;;;;;;;;5087918;28;20241;-77
2021/10/06 04:34:12;;;;;;;10.53;1.67;;;;;;;;;;5088573;28;20316;-77
2021/10/06 04:36:39;;;;;;;12.30;1.97;;;;;;;;;;5087466;28;20296;-76
2021/10/06 04:39:06;;;;;;;9.00;1.60;;;;;;;;;;5092170;28;20227;-77
2021/10/06 04:41:33;;;;;;;7.80;1.93;;;;;;;;;;5093753;28;20324;-77
2021/10/06 04:44:01;;;;;;;7.00;1.60;;;;;;;;;;5080129;28;20282;-78
2021/10/06 04:46:29;;;;;;;7.63;1.63;;;;;;;;;;5090239;28;20293;-77
2021/10/06 04:48:57;;;;;;;12.50;2.00;;;;;;;;;;5081487;28;20277;-77
2021/10/06 04:51:24;;;;;;;10.43;1.60;;;;;;;;;;5085658;28;20369;-76
2021/10/06 04:53:52;;;;;;;11.97;2.20;;;;;;;;;;5084246;28;20213;-77
2021/10/06 04:56:19;;;;;;;11.67;2.13;;;;;;;;;;5086561;28;20292;-77
2021/10/06 04:58:46;;;;;;;10.30;1.90;;;;;;;;;;5079194;28;20250;-76
2021/10/06 05:01:13;;;;;;;12.77;1.67;;;;;;;;;;5084023;28;20255;-76
2021/10/06 05:03:41;;;;;;;8.63;1.63;;;;;;;;;;5096127;28;20224;-76
2021/10/06 05:06:10;;;;;;;11.47;1.70;;;;;;;;;;5088651;28;20297;-77
2021/10/06 05:08:38;;;;;;;9.20;1.73;;;;;;;;;;5091535;28;20197;-76
2021/10/06 05:11:05;;;;;;;13.17;2.00;;;;;;;;;;5075170;28;20646;-76
2021/10/06 05:13:32;;;;;;;10.33;1.73;;;;;;;;;;5075382;28;20203;-75
2021/10/06 05:15:59;;;;;;;8.40;1.63;;;;;;;;;;5077382;28;20296;-77
2021/10/06 05:18:26;;;;;;;12.83;2.10;;;;;;;;;;5081255;28;20297;-76
2021/10/06 05:20:54;;;;;;;13.03;1.90;;;;;;;;;;5085036;28;20195;-76
2021/10/06 05:23:22;;;;;;;12.63;1.80;;;;;;;;;;5088110;28;20871;-77
2021/10/06 05:25:49;;;;;;;12.43;1.70;;;;;;;;;;5074947;28;20289;-76
2021/10/06 05:28:17;;;;;;;9.20;1.60;;;;;;;;;;5079576;28;20280;-76
2021/10/06 05:30:44;;;;;;;11.70;2.20;;;;;;;;;;5093424;28;20286;-77
2021/10/06 05:33:11;;;;;;;12.27;2.27;;;;;;;;;;5075098;28;20206;-77
2021/10/06 05:35:40;;;;;;;10.13;1.60;;;;;;;;;;5077528;28;20240;-77
2021/10/06 05:38:07;;;;;;;10.47;1.87;;;;;;;;;;5083623;28;20230;-76
2021/10/06 05:40:36;;;;;;;13.43;1.73;;;;;;;;;;5093746;28;20237;-77
2021/10/06 05:43:03;;;;;;;7.47;1.77;;;;;;;;;;5092198;28;20680;-77
2021/10/06 05:45:30;;;;;;;10.40;1.70;;;;;;;;;;5093534;28;20851;-76
2021/10/06 05:47:57;;;;;;;12.97;1.83;;;;;;;;;;5074084;28;20199;-77
2021/10/06 05:50:25;;;;;;;10.33;1.63;;;;;;;;;;5089723;28;20290;-76
2021/10/06 05:52:52;;;;;;;8.50;1.70;;;;;;;;;;5074438;28;20734;-77
2021/10/06 05:55:19;;;;;;;10.80;1.87;;;;;;;;;;5084571;28;20772;-77
2021/10/06 05:57:47;;;;;;;11.37;1.70;;;;;;;;;;5090818;28;20233;-77
2021/10/06 06:00:15;;;;;;;12.87;1.77;;;;;;;;;;5092074;28;20321;-77
2021/10/06 06:02:46;;;;;;;6.97;1.50;;;;;;;;;;5082261;28;20308;-77
2021/10/06 06:05:13;;;;;;;9.13;1.77;;;;;;;;;;5090518;28;20200;-76
2021/10/06 06:07:40;;;;;;;10.70;1.60;;;;;;;;;;5078585;28;20293;-77
2021/10/06 06:10:08;;;;;;;11.40;1.70;;;;;;;;;;5077937;28;20287;-77
2021/10/06 06:12:35;;;;;;;10.13;1.87;;;;;;;;;;5089822;28;20658;-77
2021/10/06 06:15:04;;;;;;;9.80;1.60;;;;;;;;;;5073847;28;20689;-77
2021/10/06 06:17:36;;;;;;;8.40;2.00;;;;;;;;;;5073921;28;20240;-76
2021/10/06 06:20:04;;;;;;;6.70;1.87;;;;;;;;;;5094174;28;20290;-77
2021/10/06 06:22:31;;;;;;;8.53;1.80;;;;;;;;;;5094297;28;20197;-76
2021/10/06 06:24:59;;;;;;;12.07;2.27;;;;;;;;;;5089379;28;20229;-76
2021/10/06 06:27:26;;;;;;;10.10;2.00;;;;;;;;;;5073285;28;20961;-76
2021/10/06 06:29:53;;;;;;;14.67;2.80;;;;;;;;;;5073400;28;20714;-77
2021/10/06 06:32:22;;;;;;;11.73;3.23;;;;;;;;;;5077574;28;20828;-77
2021/10/06 06:34:49;;;;;;;15.97;3.20;;;;;;;;;;5073475;28;20237;-76
2021/10/06 06:37:16;;;;;;;15.57;2.87;;;;;;;;;;5088920;28;20237;-76
2021/10/06 06:39:43;;;;;;;11.03;2.67;;;;;;;;;;5093591;28;20324;-76
2021/10/06 06:42:10;;;;;;;10.03;2.30;;;;;;;;;;5080538;28;20326;-76
2021/10/06 06:44:38;;;;;;;9.33;1.83;;;;;;;;;;5080813;28;20203;-76
2021/10/06 06:47:05;;;;;;;8.00;1.80;;;;;;;;;;5076214;28;20446;-77
2021/10/06 06:49:34;;;;;;;11.77;1.60;;;;;;;;;;5073778;28;20191;-76
2021/10/06 06:52:01;;;;;;;9.23;1.97;;;;;;;;;;5081499;28;20238;-77
2021/10/06 06:54:29;;;;;;;6.40;1.43;;;;;;;;;;5080829;28;20220;-76
2021/10/06 06:56:56;;;;;;;13.97;2.20;;;;;;;;;;5089603;28;20202;-77
2021/10/06 06:59:23;;;;;;;5.53;1.27;;;;;;;;;;5078872;28;20258;-77
2021/10/06 07:01:50;;;;;;;14.30;1.73;;;;;;;;;;5077968;28;20229;-77
2021/10/06 07:04:18;;;;;;;8.13;1.80;;;;;;;;;;5088855;28;20202;-77
2021/10/06 07:06:46;;;;;;;5.03;1.30;;;;;;;;;;5087530;28;20564;-77
2021/10/06 07:09:14;;;;;;;4.80;1.10;;;;;;;;;;5082035;28;20244;-76
2021/10/06 07:11:41;;;;;;;5.93;1.43;;;;;;;;;;5077623;28;20286;-77
2021/10/06 07:14:08;;;;;;;10.33;1.50;;;;;;;;;;5084846;28;20231;-77
2021/10/06 07:16:35;;;;;;;4.87;1.50;;;;;;;;;;5086781;28;20231;-76
2021/10/06 07:19:02;;;;;;;6.47;1.17;;;;;;;;;;5077865;28;20282;-77
2021/10/06 07:21:29;;;;;;;7.80;1.47;;;;;;;;;;5085913;28;20285;-77
2021/10/06 07:23:58;;;;;;;8.00;1.50;;;;;;;;;;5093228;28;20204;-77
2021/10/06 07:26:25;;;;;;;5.18;1.40;;;;;;;;;;5083309;28;20202;-77
2021/10/06 07:28:52;;;;;;;5.68;1.50;;;;;;;;;;5088320;28;20287;-77
2021/10/06 07:31:19;;;;;;;6.10;1.25;;;;;;;;;;5080391;28;20226;-77
2021/10/06 07:33:50;;;;;;;9.95;1.27;;;;;;;;;;5091208;28;20285;-77
2021/10/06 07:36:17;;;;;;;6.55;1.58;;;;;;;;;;5091986;28;20205;-77
2021/10/06 07:38:45;;;;;;;7.93;1.50;;;;;;;;;;5075318;28;20205;-77
2021/10/06 07:41:13;;;;;;;9.30;1.50;;;;;;;;;;5091241;28;20325;-77
2021/10/06 07:43:41;;;;;;;5.85;1.48;;;;;;;;;;5072199;28;20195;-77
2021/10/06 07:46:08;;;;;;;6.28;1.23;;;;;;;;;;5085193;28;20544;-77
2021/10/06 07:48:36;;;;;;;8.85;1.40;;;;;;;;;;5092223;28;20647;-76
2021/10/06 07:51:03;;;;;;;6.28;1.50;;;;;;;;;;5076413;28;20212;-77
2021/10/06 07:53:30;;;;;;;4.95;1.23;;;;;;;;;;5071530;28;20289;-77
2021/10/06 07:55:57;;;;;;;9.07;1.40;;;;;;;;;;5072176;28;20286;-77
2021/10/06 07:58:26;;;;;;;5.35;1.10;;;;;;;;;;5071584;28;20226;-77
2021/10/06 08:00:53;;;;;;;5.93;1.58;;;;;;;;;;5078844;28;20305;-77
2021/10/06 08:03:20;;;;;;;6.50;1.80;;;;;;;;;;5074305;28;20302;-77
2021/10/06 08:05:47;;;;;;;8.13;1.45;;;;;;;;;;5082862;28;20285;-77
2021/10/06 08:08:14;;;;;;;4.20;1.00;;;;;;;;;;5079180;28;20286;-77
2021/10/06 08:10:42;;;;;;;7.50;1.38;;;;;;;;;;5071807;28;20191;-77
2021/10/06 08:13:09;;;;;;;3.78;1.17;;;;;;;;;;5078537;28;20677;-77
2021/10/06 08:15:38;;;;;;;4.82;1.30;;;;;;;;;;5081082;28;21103;-77
2021/10/06 08:18:05;;;;;;;3.50;1.23;;;;;;;;;;5071629;28;20231;-77
2021/10/06 08:20:33;;;;;;;7.63;1.83;;;;;;;;;;5085588;28;20309;-77
2021/10/06 08:23:01;;;;;;;6.13;1.63;;;;;;;;;;5086613;28;20195;-77
2021/10/06 08:25:28;;;;;;;3.30;1.17;;;;;;;;;;5080898;28;20289;-77
2021/10/06 08:27:55;;;;;;;5.00;1.33;;;;;;;;;;5079554;28;20532;-77
2021/10/06 08:30:23;;;;;;;6.38;1.40;;;;;;;;;;5083105;28;20289;-77
2021/10/06 08:32:51;;;;;;;5.57;1.13;;;;;;;;;;5079027;28;20290;-77
2021/10/06 08:35:19;;;;;;;8.93;1.50;;;;;;;;;;5087402;28;20285;-77
2021/10/06 08:37:46;;;;;;;4.05;1.20;;;;;;;;;;5074684;28;20290;-77
2021/10/06 08:40:14;;;;;;;4.50;1.23;;;;;;;;;;5090547;28;20310;-77
2021/10/06 08:42:41;;;;;;;5.43;1.50;;;;;;;;;;5081261;28;20199;-77
2021/10/06 08:45:09;;;;;;;4.53;1.20;;;;;;;;;;5075484;28;20260;-78
2021/10/06 08:47:36;;;;;;;4.63;1.25;;;;;;;;;;5071074;28;20311;-77
2021/10/06 08:50:05;;;;;;;4.28;1.17;;;;;;;;;;5088927;28;20626;-77
2021/10/06 08:52:32;;;;;;;6.82;1.35;;;;;;;;;;5083508;28;20195;-77
2021/10/06 08:54:59;;;;;;;6.50;1.30;;;;;;;;;;5071267;28;20299;-77
2021/10/06 08:57:26;;;;;;;8.70;1.35;;;;;;;;;;5080338;28;20198;-77
2021/10/06 08:59:54;;;;;;;6.75;1.30;;;;;;;;;;5075033;28;20245;-77
2021/10/06 09:02:21;;;;;;;4.90;1.20;;;;;;;;;;5076813;28;20293;-77
2021/10/06 09:04:49;;;;;;;3.97;1.10;;;;;;;;;;5090937;28;20233;-77
2021/10/06 09:07:18;;;;;;;4.00;1.30;;;;;;;;;;5077896;28;20203;-77
2021/10/06 09:09:47;;;;;;;4.75;1.20;;;;;;;;;;5082885;28;20285;-76
2021/10/06 09:12:16;;;;;;;8.13;1.42;;;;;;;;;;5089587;28;20221;-77
2021/10/06 09:14:44;;;;;;;6.38;1.17;;;;;;;;;;5085721;28;20253;-77
2021/10/06 09:17:12;;;;;;;4.85;1.10;;;;;;;;;;5071429;28;20286;-77
2021/10/06 09:19:42;;;;;;;6.32;0.95;;;;;;;;;;5092757;28;20289;-77
2021/10/06 09:22:13;;;;;;;4.53;1.15;;;;;;;;;;5095091;28;20668;-77
2021/10/06 09:24:52;;;;;;;5.75;1.10;;;;;;;;;;5093877;28;20285;-77
2021/10/06 09:27:20;;;;;;;6.18;1.30;;;;;;;;;;5075304;28;20233;-77
2021/10/06 09:29:48;;;;;;;4.13;1.23;;;;;;;;;;5088178;28;20194;-77
2021/10/06 09:32:21;;;;;;;3.72;1.00;;;;;;;;;;5076503;28;20205;-77
2021/10/06 09:34:59;;;;;;;4.38;1.15;;;;;;;;;;5077920;28;20329;-77
2021/10/06 09:37:27;;;;;;;4.07;1.10;;;;;;;;;;5083315;28;20221;-77
2021/10/06 09:39:56;;;;;;;6.90;1.10;;;;;;;;;;5080853;28;20233;-77
2021/10/06 09:42:23;;;;;;;6.50;1.40;;;;;;;;;;5082632;28;20281;-77
2021/10/06 09:44:54;;;;;;;4.38;1.23;;;;;;;;;;5088688;28;20198;-77
2021/10/06 09:47:21;;;;;;;8.30;1.40;;;;;;;;;;5084105;28;20277;-77
2021/10/06 09:49:53;;;;;;;5.10;1.20;;;;;;;;;;5082689;28;20206;-77
2021/10/06 09:52:21;;;;;;;4.53;1.15;;;;;;;;;;5083927;28;20195;-77
2021/10/06 09:54:49;;;;;;;8.43;1.27;;;;;;;;;;5084569;28;20201;-77
2021/10/06 09:57:24;;;;;;;6.82;1.20;;;;;;;;;;5082874;28;20671;-77
2021/10/06 09:59:52;;;;;;;5.97;1.25;;;;;;;;;;5085440;28;20733;-77
2021/10/06 10:02:20;;;;;;;6.32;1.30;;;;;;;;;;5083452;28;20309;-77
2021/10/06 10:04:47;;;;;;;3.45;1.00;;;;;;;;;;5085814;28;20356;-78
2021/10/06 10:07:14;;;;;;;4.15;0.90;;;;;;;;;;5083861;28;20285;-77
2021/10/06 10:09:42;;;;;;;4.30;1.27;;;;;;;;;;5077465;28;20234;-78
2021/10/06 10:12:10;;;;;;;3.90;1.20;;;;;;;;;;5086387;28;20215;-77
2021/10/06 10:14:40;;;;;;;5.97;1.30;;;;;;;;;;5074022;28;20324;-77
2021/10/06 10:17:07;;;;;;;4.60;1.20;;;;;;;;;;5088882;28;20194;-77
2021/10/06 10:19:34;;;;;;;3.33;1.00;;;;;;;;;;5088269;28;20285;-77
2021/10/06 10:22:04;;;;;;;4.25;1.10;;;;;;;;;;5080640;28;20303;-77
2021/10/06 10:24:32;;;;;;;3.80;0.98;;;;;;;;;;5086217;28;20591;-77
2021/10/06 10:27:01;;;;;;;3.38;1.00;;;;;;;;;;5078222;28;20237;-77
2021/10/06 10:30:07;;;;;;;5.60;1.17;;;;;;;;;;5082789;28;20195;-77
2021/10/06 10:32:57;;;;;;;3.25;1.00;;;;;;;;;;5090139;28;20665;-77
2021/10/06 10:35:59;;;;;;;5.03;1.08;;;;;;;;;;5082484;28;20259;-77
2021/10/06 10:39:08;;;;;;;4.72;1.15;;;;;;;;;;5023505;28;20202;-77
2021/10/06 10:42:10;;;;;;;3.40;0.80;;;;;;;;;;5018904;28;20240;-78
2021/10/06 10:51:03;;;;;;;3.30;0.90;;;;;;;;;;5026748;28;20191;-77
2021/10/06 10:54:00;;;;;;;4.20;1.05;;;;;;;;;;5030185;28;20750;-77
2021/10/06 10:56:39;;;;;;;5.70;1.20;;;;;;;;;;4961228;28;20585;-77
2021/10/06 10:59:09;;;;;;;4.93;1.10;;;;;;;;;;4951472;28;20217;-78
2021/10/06 11:01:40;;;;;;;3.28;0.70;;;;;;;;;;4971085;28;20226;-77
2021/10/06 11:04:12;;;;;;;5.05;0.95;;;;;;;;;;5010767;28;20308;-78
2021/10/06 11:06:41;;;;;;;5.80;0.98;;;;;;;;;;5010964;28;20201;-79
2021/10/06 11:09:27;;;;;;;4.18;0.90;;;;;;;;;;5025081;28;20205;-77
2021/10/06 11:11:55;;;;;;;3.90;0.88;;;;;;;;;;5010618;28;20661;-77
2021/10/06 11:14:24;;;;;;;5.03;1.10;;;;;;;;;;5022639;28;20209;-77
2021/10/06 11:17:06;;;;;;;4.70;0.88;;;;;;;;;;5032012;28;20288;-77
2021/10/06 11:19:40;;;;;;;3.97;0.77;;;;;;;;;;5024858;28;20278;-77
2021/10/06 11:22:23;;;;;;;3.80;0.82;;;;;;;;;;5013336;28;20598;-76
2021/10/06 11:24:50;;;;;;;4.80;0.88;;;;;;;;;;5025514;28;20211;-77
2021/10/06 11:27:18;;;;;;;4.40;1.08;;;;;;;;;;5011997;28;20202;-77
2021/10/06 11:29:48;;;;;;;3.55;1.00;;;;;;;;;;5023170;28;20195;-77
2021/10/06 11:32:15;;;;;;;3.60;0.80;;;;;;;;;;5084237;28;20576;-77
2021/10/06 11:34:45;;;;;;;3.00;0.90;;;;;;;;;;5086984;28;20195;-77
2021/10/06 11:37:16;;;;;;;3.25;0.90;;;;;;;;;;5072428;28;20197;-77
2021/10/06 11:39:44;;;;;;;3.53;0.80;;;;;;;;;;5079971;28;20580;-77
2021/10/06 11:42:11;;;;;;;2.45;0.98;;;;;;;;;;5087634;28;20210;-77
2021/10/06 11:44:39;;;;;;;4.40;0.90;;;;;;;;;;5072520;28;20206;-78
2021/10/06 11:47:10;;;;;;;3.47;0.90;;;;;;;;;;5074971;28;20218;-77
2021/10/06 11:49:38;;;;;;;4.18;0.75;;;;;;;;;;5084981;28;20198;-77
2021/10/06 11:52:07;;;;;;;3.45;0.95;;;;;;;;;;5090151;28;20623;-77
2021/10/06 11:54:34;;;;;;;5.28;0.90;;;;;;;;;;5073901;28;20671;-77
2021/10/06 11:57:03;;;;;;;2.70;0.95;;;;;;;;;;5081802;28;20195;-77
2021/10/06 11:59:33;;;;;;;3.38;0.80;;;;;;;;;;5075612;28;20257;-77
2021/10/06 12:02:01;;;;;;;4.38;0.90;;;;;;;;;;5071901;28;20230;-77
2021/10/06 12:04:32;;;;;;;3.72;0.90;;;;;;;;;;5078549;28;20558;-76
2021/10/06 12:07:01;;;;;;;3.55;0.82;;;;;;;;;;5077443;28;20561;-77
2021/10/06 12:09:29;;;;;;;3.67;1.08;;;;;;;;;;5088976;28;20206;-77
2021/10/06 12:11:57;;;;;;;3.08;0.70;;;;;;;;;;5083326;28;20199;-77
2021/10/06 12:14:33;;;;;;;3.90;1.00;;;;;;;;;;5087683;28;20582;-77
2021/10/06 12:17:02;;;;;;;4.47;1.08;;;;;;;;;;5087759;28;20206;-77
2021/10/06 12:19:31;;;;;;;2.67;0.68;;;;;;;;;;5091116;28;20206;-77
2021/10/06 12:21:59;;;;;;;2.88;0.68;;;;;;;;;;5097456;28;20209;-77
2021/10/06 12:24:27;;;;;;;3.08;0.93;;;;;;;;;;5099393;28;20252;-77
2021/10/06 12:26:56;;;;;;;3.60;0.63;;;;;;;;;;5100613;28;20221;-77
2021/10/06 12:29:24;;;;;;;2.15;0.60;;;;;;;;;;5101851;28;20205;-77
2021/10/06 12:31:55;;;;;;;2.72;0.70;;;;;;;;;;5099973;28;20205;-77
2021/10/06 12:34:23;;;;;;;3.05;0.70;;;;;;;;;;5105706;28;20194;-77
2021/10/06 12:36:53;;;;;;;3.15;0.80;;;;;;;;;;5094983;28;20203;-77
2021/10/06 12:39:23;;;;;;;3.10;0.60;;;;;;;;;;5097077;28;20205;-77
2021/10/06 12:41:54;;;;;;;4.93;0.80;;;;;;;;;;5092541;28;20214;-77
2021/10/06 12:44:27;;;;;;;2.58;0.63;;;;;;;;;;5101712;28;20194;-77
2021/10/06 12:46:55;;;;;;;2.92;0.77;;;;;;;;;;5103090;28;20615;-77
2021/10/06 12:49:23;;;;;;;3.22;0.63;;;;;;;;;;5101496;28;20197;-76
2021/10/06 12:51:57;;;;;;;3.42;0.70;;;;;;;;;;5098493;28;20202;-77
2021/10/06 12:54:26;;;;;;;20.75;12.52;;;;;;;;;;5104797;28;20197;-76
2021/10/06 12:56:55;;;;;;;5.80;4.28;;;;;;;;;;5103913;28;20201;-76
2021/10/06 12:59:30;;;;;;;5.43;2.25;;;;;;;;;;5092267;28;20209;-76
2021/10/06 13:01:58;;;;;;;4.85;1.65;;;21.70;24.10;;;;;;5099054;28;20221;-76
2021/10/06 13:04:26;;;;;;;3.20;0.90;;;22.40;27.60;;;;;;5092941;27;20198;-76
2021/10/06 13:06:55;;;;;;;2.50;0.70;;;23.40;21.30;;;;;;5096090;28;20545;-75
2021/10/06 13:09:23;;;;;;;3.13;0.68;;;23.10;19.10;;;;;;5100114;28;20217;-76
2021/10/06 13:11:53;;;;;;;3.42;0.80;;;23.40;25.90;;;;;;5097308;28;20724;-76
2021/10/06 13:14:22;;;;;;;3.13;0.80;;;25.10;14.50;;;;;;5098409;28;20194;-76
2021/10/06 13:16:50;;;;;;;3.78;0.88;;;24.80;6.60;;;;;;5098375;28;20604;-76
2021/10/06 13:19:18;;;;;;;1.95;0.63;;;24.10;7.80;;;;;;5101925;28;20198;-76
2021/10/06 13:21:47;;;;;;;2.63;0.60;;;24.00;12.60;;;;;;5092145;27;20227;-76
2021/10/06 13:24:17;;;;;;;2.92;0.50;;;23.20;16.10;;;;;;5087218;28;20850;-77
2021/10/06 13:26:47;;;;;;;1.98;0.60;;;22.50;17.90;;;;;;5084704;28;20566;-76
2021/10/06 13:29:16;;;;;;;4.75;0.82;;;21.70;23.30;;;;;;5085534;28;20201;-76
2021/10/06 13:31:43;;;;;;;2.40;0.50;;;20.90;34.00;;;;;;5088470;28;20568;-76
2021/10/06 13:34:12;;;;;;;5.10;0.50;;;20.50;30.80;;;;;;5086804;28;20206;-76
2021/10/06 13:36:39;;;;;;;4.93;0.75;;;20.00;31.00;;;;;;5091215;28;20194;-76
2021/10/06 13:39:08;;;;;;;2.33;0.43;;;20.40;37.20;;;;;;5090718;28;20202;-76
2021/10/06 13:41:37;;;;;;;2.55;0.60;;;21.00;33.80;;;;;;5098057;28;20234;-76
2021/10/06 13:44:05;;;;;;;2.03;0.60;;;20.40;32.60;;;;;;5091065;28;20206;-76
2021/10/06 13:46:33;;;;;;;2.33;0.80;;;19.70;43.30;;;;;;5087301;28;20213;-76
2021/10/06 13:49:01;;;;;;;2.63;0.80;;;19.30;53.00;;;;;;5088243;28;20191;-75
2021/10/06 13:51:29;;;;;;;5.40;0.88;;;18.90;56.60;;;;;;5097849;28;20205;-75
2021/10/06 13:53:59;;;;;;;2.85;0.73;;;19.40;63.20;;;;;;5091309;28;20222;-76
2021/10/06 13:56:27;;;;;;;4.15;0.75;;;19.10;57.90;;;;;;5100014;28;20189;-76
2021/10/06 13:58:57;;;;;;;6.40;0.70;;;19.00;66.50;;;;;;5093897;28;20198;-77
2021/10/06 14:01:25;;;;;;;4.28;0.60;;;19.10;68.80;;;;;;5088229;28;20222;-76
2021/10/06 14:03:53;;;;;;;3.60;0.65;;;19.10;68.20;;;;;;5076587;28;20551;-76
2021/10/06 14:06:20;;;;;;;4.55;0.55;;;20.10;61.00;;;;;;5079083;28;20198;-77
2021/10/06 14:08:48;;;;;;;1.80;0.57;;;21.10;44.10;;;;;;5084155;28;20198;-76
2021/10/06 14:11:15;;;;;;;2.88;0.80;;;21.60;37.70;;;;;;5086538;28;20284;-76
2021/10/06 14:13:43;;;;;;;2.63;0.80;;;21.10;34.40;;;;;;5077106;28;20203;-76
2021/10/06 14:16:13;;;;;;;2.97;0.50;;;21.40;36.10;;;;;;5081619;28;20203;-77
2021/10/06 14:18:40;;;;;;;2.58;0.80;;;22.00;34.20;;;;;;5092488;28;20203;-76
2021/10/06 14:21:09;;;;;;;4.70;0.82;;;22.30;28.20;;;;;;5076002;28;20210;-76
2021/10/06 14:23:37;;;;;;;3.28;0.70;;;22.60;28.30;;;;;;5075388;28;20283;-76
2021/10/06 14:26:05;;;;;;;3.60;0.68;;;23.00;27.60;;;;;;5081232;28;20639;-76
2021/10/06 14:28:32;;;;;;;2.63;0.47;;;22.60;23.90;;;;;;5080296;28;20199;-76
2021/10/06 14:31:00;;;;;;;4.03;0.82;;;22.20;27.30;;;;;;5073810;28;20598;-75
2021/10/06 14:33:29;;;;;;;2.45;0.80;;;22.30;30.80;;;;;;5080711;28;20283;-78
2021/10/06 14:35:56;;;;;;;2.72;1.38;;;22.50;27.40;;;;;;5084034;28;20195;-76
2021/10/06 14:38:24;;;;;;;3.42;0.85;;;22.80;25.20;;;;;;5089042;28;20229;-77